HDL weather

Casa De Lata Heliport
Junín de Los andes, Neuquén Province, Argentina

Public forecast

Using degrees Celsius for public forecast. Weather courtesy of forecast.io.

METAR (pilot weather report)

Closest report is Aviador C. Campos Airport, 15.7 nm (29.0 km) S. Retrieved 2019/03/18 16:20 UTC (2 hours ago):

SAZY 181620Z 25019G29KT 9999 FEW040 12/M05 Q1016

TAF (pilot weather forecast)

Forecast is more than 12 hours old.

Closest forecast is Aviador C. Campos Airport, 15.7 nm (29.0 km) S. Retrieved 2019/02/23 00:18 UTC (24 days ago):

TAF SAZY 232300Z 2400/2424 25020G30KT CAVOK TX16/2418Z TN03/2410Z TEMPO 2405/2412 27010KT